Latest Weather Observations for Winton

IDQ60801

Issued at 6:31 pm EST Wednesday 10 February 2016 (issued every 30 minutes, with the page automatically refreshed every 10 minutes)

About weather observations | Map of weather stations | Latest weather observations for QLD | Other Formats
Station Details ID: 037039 Name: WINTON AIRPORT Lat: -22.36 Lon: 143.08 Height: 192.2 m
Data from the previous 72 hours. | See also: Recent months at Winton
Date/Time
EST
Temp
°C
App
Temp
°C
Dew
Point
Rel
Hum
%
Delta-T
°C
Wind Press
QNH
hPa
Press
MSL
hPa
Rain
since 9 am
mm
Dir
 
Spd
km/h
Gust
km/h
Spd
kts
Gust
kts
10/06:30pm 32.4 30.2 14.5 33 11.1 ENE 19 24 10 13 1007.3 1005.9 0.0
10/06:00pm 33.3 31.1 14.8 32 11.5 ENE 20 26 11 14 1007.1 1005.7 0.0
10/05:30pm 33.8 31.2 14.8 32 11.8 ENE 22 32 12 17 1006.8 1005.3 0.0
10/05:00pm 33.7 31.2 14.2 30 12.1 ENE 20 28 11 15 1006.7 1005.2 0.0
10/04:30pm 34.2 30.4 12.5 27 13.1 ESE 24 33 13 18 1006.8 1005.3 0.0
10/04:00pm 35.1 33.1 14.9 29 12.7 ESE 19 28 10 15 1006.9 1005.4 0.0
10/03:30pm 35.1 32.7 14.4 29 12.9 ESE 20 28 11 15 1007.1 1005.7 0.0
10/03:00pm 34.9 32.1 13.1 27 13.3 SE 20 33 11 18 1007.5 1006.1 0.0
10/02:30pm 33.5 31.3 15.0 32 11.5 E 20 30 11 16 1007.9 1006.5 0.0
10/02:00pm 34.6 33.0 16.4 33 11.6 E 20 28 11 15 1008.4 1007.0 0.0
10/01:30pm 33.9 32.4 16.3 35 11.2 ESE 19 32 10 17 1008.9 1007.5 0.0
10/01:00pm 33.6 33.1 16.0 34 11.2 E 13 24 7 13 1009.3 1007.9 0.0
10/12:30pm 33.4 32.6 17.1 37 10.5 E 17 32 9 17 1009.7 1008.3 0.0
10/12:00pm 33.3 33.8 18.3 41 9.8 ENE 13 26 7 14 1010.1 1008.7 0.0
10/11:30am 32.3 32.4 16.6 39 10.0 E 11 20 6 11 1010.4 1009.0 0.0
10/11:00am 32.0 31.4 17.5 42 9.3 ENE 17 24 9 13 1010.7 1009.2 0.0
10/10:30am 31.3 30.6 18.3 46 8.4 ENE 19 28 10 15 1010.9 1009.4 0.0
10/10:00am 30.5 29.4 18.6 49 7.7 NE 22 26 12 14 1011.1 1009.6 0.0
10/09:30am 29.7 28.5 18.5 51 7.3 ENE 22 30 12 16 1011.3 1009.8 0.0
10/09:00am 28.8 27.2 18.3 53 6.8 ENE 24 32 13 17 1011.3 1009.8 0.0
10/08:30am 28.4 27.0 17.9 53 6.7 ENE 22 30 12 16 1011.2 1009.7 0.0
10/08:00am 27.7 27.2 17.8 54 6.3 E 17 20 9 11 1011.0 1009.5 0.0
10/07:30am 25.8 26.7 18.5 64 4.7 E 11 17 6 9 1010.7 1009.2 0.0
10/07:00am 23.6 25.4 18.3 72 3.4 ESE 6 7 3 4 1010.3 1008.9 0.0
10/06:30am 22.1 23.5 17.9 77 2.6 E 7 9 4 5 1009.7 1008.3 0.0
10/06:00am 22.3 23.7 17.7 75 2.9 E 7 9 4 5 1009.3 1007.9 0.0
10/05:30am 22.9 24.3 17.8 73 3.2 E 7 9 4 5 1009.0 1007.6 0.0
10/05:00am 23.1 24.6 18.0 73 3.2 E 7 9 4 5 1008.8 1007.4 0.0
10/04:30am 22.8 23.9 18.1 75 3.0 ENE 9 9 5 5 1008.6 1007.2 0.0
10/04:00am 23.3 24.9 18.2 73 3.2 E 7 9 4 5 1008.7 1007.3 0.0
10/03:30am 23.6 25.3 18.5 73 3.2 E 7 9 4 5 1008.8 1007.4 0.0
10/03:00am 24.0 25.7 18.4 71 3.6 E 7 7 4 4 1008.9 1007.5 0.0
10/02:30am 24.6 26.2 18.3 68 4.0 ESE 7 7 4 4 1008.8 1007.4 0.0
10/02:00am 24.8 26.4 18.3 67 4.1 E 7 7 4 4 1008.9 1007.5 0.0
10/01:30am 25.3 26.6 18.5 66 4.3 E 9 9 5 5 1009.2 1007.8 0.0
10/01:00am 25.8 26.9 18.0 62 5.0 ENE 9 9 5 5 1009.5 1008.1 0.0
10/12:30am 26.9 27.9 17.7 57 5.8 ENE 9 11 5 6 1009.7 1008.3 0.0
10/12:00am 28.3 28.4 17.5 52 6.9 E 13 17 7 9 1009.7 1008.3 0.0
 
Date/Time
EST
Temp
°C
App
Temp
°C
Dew
Point
Rel
Hum
%
Delta-T
°C
Wind Press
QNH
hPa
Press
MSL
hPa
Rain
since 9 am
mm
Dir
 
Spd
km/h
Gust
km/h
Spd
kts
Gust
kts
09/11:30pm 28.8 28.6 17.7 51 7.1 E 15 19 8 10 1009.9 1008.5 0.0
09/11:00pm 29.2 28.8 18.0 51 7.2 E 17 22 9 12 1009.9 1008.5 0.0
09/10:30pm 30.0 29.1 17.8 48 7.8 E 19 24 10 13 1009.6 1008.2 0.0
09/10:00pm 30.3 30.4 18.4 49 7.7 E 15 20 8 11 1009.6 1008.2 0.0
09/09:30pm 30.7 30.3 18.1 47 8.1 E 17 20 9 11 1009.4 1008.0 0.0
09/09:00pm 30.9 31.1 18.6 48 8.0 SE 15 19 8 10 1009.4 1008.0 0.0
09/08:30pm 31.3 30.4 18.3 46 8.4 E 20 26 11 14 1008.8 1007.4 0.0
09/08:00pm 31.4 30.8 18.4 46 8.5 E 19 24 10 13 1008.5 1007.1 0.0
09/07:30pm 32.0 31.3 18.2 43 9.0 ENE 19 24 10 13 1007.9 1006.5 0.0
09/07:00pm 32.5 31.7 17.9 41 9.5 ENE 19 22 10 12 1007.6 1006.2 0.0
09/06:30pm 33.1 32.0 17.7 40 10.0 ENE 20 28 11 15 1007.3 1005.9 0.0
09/06:00pm 33.5 32.0 17.6 38 10.3 E 22 28 12 15 1007.4 1006.0 0.0
09/05:30pm 33.4 32.4 18.0 40 10.0 ENE 20 28 11 15 1007.3 1005.9 0.0
09/05:00pm 33.7 32.2 17.8 38 10.3 E 22 30 12 16 1007.5 1006.1 0.0
09/04:30pm 34.2 33.7 18.7 40 10.2 ENE 19 26 10 14 1007.5 1006.1 0.0
09/04:00pm 34.5 34.5 18.9 39 10.3 E 17 24 9 13 1007.6 1006.2 0.0
09/03:30pm 34.8 35.1 18.8 39 10.6 E 15 28 8 15 1007.8 1006.4 0.0
09/03:00pm 35.2 34.7 19.1 38 10.7 ENE 20 33 11 18 1008.2 1006.8 0.0
09/02:30pm 34.3 34.4 19.1 40 10.1 ENE 17 32 9 17 1008.9 1007.5 0.0
09/02:00pm 34.3 34.2 19.5 41 9.9 ENE 19 30 10 16 1009.2 1007.8 0.0
09/01:30pm 33.7 33.7 19.0 42 9.7 ENE 17 30 9 16 1009.9 1008.5 0.0
09/01:00pm 33.9 34.0 19.9 43 9.4 ENE 19 32 10 17 1010.1 1008.7 0.0
09/12:30pm 33.0 32.1 19.1 43 9.2 E 22 33 12 18 1010.6 1009.1 0.0
09/12:00pm 32.8 32.6 19.7 46 8.7 ENE 20 30 11 16 1011.0 1009.5 0.0
09/11:30am 32.3 31.8 19.2 46 8.6 ENE 20 30 11 16 1011.3 1009.8 0.0
09/11:00am 32.0 31.1 19.9 48 8.1 ENE 24 35 13 19 1011.6 1010.1 0.0
09/10:30am 31.4 30.3 19.4 49 7.9 ENE 24 35 13 19 1011.9 1010.5 0.0
09/10:00am 30.4 30.1 20.3 54 6.7 ENE 22 32 12 17 1012.1 1010.7 0.0
09/09:30am 30.3 29.6 20.2 54 6.7 ENE 24 33 13 18 1012.2 1010.8 0.0
09/09:00am 29.6 29.1 20.7 58 5.9 ENE 24 32 13 17 1012.1 1010.7 0.0
09/08:30am 28.5 28.5 21.0 64 5.0 E 22 28 12 15 1012.0 1010.6 0.0
09/08:00am 27.3 27.9 21.3 69 4.0 ESE 20 26 11 14 1011.7 1010.3 0.0
09/07:30am 26.3 27.4 21.3 74 3.3 ESE 17 24 9 13 1011.6 1010.1 0.0
09/07:00am 25.1 26.5 21.0 78 2.7 ESE 15 19 8 10 1011.3 1009.8 0.0
09/06:30am 24.6 26.8 21.1 81 2.3 ESE 11 13 6 7 1011.1 1009.6 0.0
09/06:00am 24.6 26.7 20.9 80 2.4 ESE 11 15 6 8 1010.7 1009.2 0.0
09/05:30am 24.8 26.6 21.1 80 2.5 ESE 13 19 7 10 1010.2 1008.8 0.0
09/05:00am 25.1 27.3 21.2 79 2.6 SE 11 17 6 9 1010.0 1008.6 0.0
09/04:30am 25.3 26.8 21.2 78 2.7 ESE 15 20 8 11 1009.5 1008.1 0.0
09/04:00am 25.6 26.8 21.5 78 2.7 ESE 17 22 9 12 1009.3 1007.9 0.0
09/03:30am 26.0 29.0 21.9 78 2.8 ESE 9 11 5 6 1009.4 1008.0 0.0
09/03:00am 26.2 29.1 21.8 77 3.0 ESE 9 11 5 6 1009.3 1007.9 0.0
09/02:30am 26.5 29.7 22.3 78 2.8 E 9 11 5 6 1009.5 1008.1 0.0
09/02:00am 26.5 30.3 22.8 80 2.5 ESE 7 9 4 5 1009.8 1008.4 0.0
09/01:30am 26.5 30.9 22.8 80 2.5 ESE 4 6 2 3 1010.0 1008.6 0.0
09/01:00am 26.6 31.1 22.9 80 2.5 SE 4 7 2 4 1010.3 1008.9 0.0
09/12:30am 26.2 30.9 22.7 81 2.4 E 2 6 1 3 1010.4 1009.0 0.0
09/12:00am 26.2 29.6 22.7 81 2.4 E 9 11 5 6 1010.7 1009.2 0.0
 
Date/Time
EST
Temp
°C
App
Temp
°C
Dew
Point
Rel
Hum
%
Delta-T
°C
Wind Press
QNH
hPa
Press
MSL
hPa
Rain
since 9 am
mm
Dir
 
Spd
km/h
Gust
km/h
Spd
kts
Gust
kts
08/11:30pm 26.4 29.0 22.7 80 2.5 ENE 13 17 7 9 1011.0 1009.5 0.0
08/11:00pm 26.7 29.5 22.3 77 3.0 ENE 11 13 6 7 1011.2 1009.7 0.0
08/10:30pm 27.1 28.5 21.8 73 3.6 E 17 20 9 11 1010.8 1009.3 0.0
08/10:00pm 27.1 29.3 21.8 73 3.6 E 13 17 7 9 1010.8 1009.3 0.0
08/09:30pm 26.9 28.7 21.9 74 3.4 ESE 15 22 8 12 1010.4 1009.0 0.0
08/09:00pm 26.8 26.6 21.3 72 3.7 ESE 24 32 13 17 1010.0 1008.6 0.0
08/08:30pm 27.3 24.5 21.1 69 4.1 ESE 37 48 20 26 1009.6 1008.2 0.0
08/08:00pm 27.9 26.2 21.7 69 4.2 SE 33 44 18 24 1009.7 1008.3 0.0
08/07:30pm 29.0 25.4 21.0 62 5.4 SE 41 52 22 28 1009.1 1007.7 0.0
08/07:24pm 29.5 26.2 20.9 60 5.8 SE 39 59 21 32 1008.9 1007.5 0.0
08/07:00pm 29.7 25.8 21.1 60 5.8 SSE 43 57 23 31 1008.4 1007.0 0.0
08/06:30pm 31.3 29.8 20.9 54 7.0 S 30 44 16 24 1007.8 1006.4 0.0
08/06:00pm 33.9 34.1 20.6 45 9.0 ENE 20 28 11 15 1006.8 1005.3 0.0
08/05:30pm 35.0 33.7 19.0 39 10.6 E 24 33 13 18 1006.7 1005.2 0.0
08/05:05pm 36.6 36.6 18.2 34 12.1 ENE 15 35 8 19 1006.5 1005.0 0.0
08/05:00pm 37.1 38.4 17.6 31 12.8 E 7 13 4 7 1006.4 1004.9 0.0
08/04:30pm 37.4 37.8 18.9 34 12.3 ESE 15 28 8 15 1006.4 1004.9 0.0
08/04:00pm 36.5 38.0 18.1 33 12.1 SE 7 9 4 5 1006.7 1005.2 0.0
08/03:30pm 36.2 36.5 17.8 33 12.0 ESE 13 24 7 13 1007.0 1005.6 0.0
08/03:00pm 36.5 36.5 17.1 31 12.6 SSE 13 22 7 12 1007.3 1005.9 0.0
08/02:30pm 36.2 36.8 17.8 33 12.0 SE 11 22 6 12 1007.7 1006.3 0.0
08/02:00pm 36.3 37.4 18.8 35 11.6 ENE 11 24 6 13 1008.2 1006.8 0.0
08/01:30pm 35.2 36.8 19.1 38 10.7 E 9 17 5 9 1008.8 1007.4 0.0
08/01:00pm 34.8 37.2 22.2 48 8.7 NE 13 22 7 12 1009.4 1008.0 0.0
08/12:30pm 33.9 36.5 22.7 52 7.8 E 13 22 7 12 1010.2 1008.8 0.0
08/12:00pm 34.2 36.9 24.2 56 7.1 E 17 28 9 15 1010.7 1009.2 0.0
08/11:30am 33.0 34.8 23.3 56 6.8 E 19 30 10 16 1011.0 1009.5 0.0
08/11:00am 32.0 33.6 23.3 60 6.1 E 20 30 11 16 1011.2 1009.7 0.0
08/10:30am 31.9 33.2 23.4 60 5.9 E 22 30 12 16 1011.4 1009.9 0.0
08/10:00am 30.4 31.7 23.3 66 4.9 E 22 32 12 17 1011.5 1010.0 0.0
08/09:30am 29.7 31.0 23.4 69 4.4 E 22 30 12 16 1011.6 1010.1 0.0
08/09:00am 28.9 31.0 23.8 74 3.5 ESE 19 24 10 13 1011.5 1010.0 0.0
08/08:30am 27.8 29.6 23.2 76 3.2 ESE 19 24 10 13 1011.4 1009.9 0.0
08/08:00am 27.1 28.4 22.7 77 3.0 ESE 20 26 11 14 1011.1 1009.6 0.0
08/07:30am 26.3 28.0 22.4 79 2.6 ESE 17 20 9 11 1010.9 1009.4 0.0
08/07:00am 25.7 27.6 22.0 80 2.5 SE 15 19 8 10 1010.8 1009.3 0.0
08/06:30am 25.4 26.7 21.7 80 2.5 SE 17 22 9 12 1010.2 1008.8 0.0
08/06:00am 25.4 26.4 21.7 80 2.5 SE 19 24 10 13 1009.8 1008.4 0.0
08/05:30am 25.4 26.1 21.5 79 2.6 SE 20 30 11 16 1009.7 1008.3 0.0
08/05:00am 25.6 26.4 21.7 79 2.6 SE 20 24 11 13 1009.4 1008.0 0.0
08/04:30am 25.7 26.6 21.6 78 2.7 SE 19 24 10 13 1009.4 1008.0 0.0
08/04:00am 25.7 26.5 21.4 77 2.9 SE 19 22 10 12 1009.3 1007.9 0.0
08/03:30am 25.9 27.0 21.3 76 3.1 SE 17 22 9 12 1009.2 1007.8 0.0
08/03:00am 26.1 27.3 21.5 76 3.1 SE 17 24 9 13 1009.2 1007.8 0.0
08/02:30am 26.1 26.9 21.3 75 3.2 SSE 19 24 10 13 1009.4 1008.0 0.0
08/02:00am 26.5 27.2 21.5 74 3.4 SSE 20 26 11 14 1009.6 1008.2 0.0
08/01:30am 26.6 27.5 21.6 74 3.4 SSE 19 26 10 14 1009.8 1008.4 0.0
08/01:00am 27.0 27.8 21.7 73 3.6 SSE 20 28 11 15 1010.0 1008.6 0.0
08/12:30am 27.4 27.9 21.9 72 3.7 SSE 22 30 12 16 1010.2 1008.8 0.0
08/12:00am 27.8 27.5 21.1 67 4.5 SE 24 33 13 18 1010.3 1008.9 0.0
 
Date/Time
EST
Temp
°C
App
Temp
°C
Dew
Point
Rel
Hum
%
Delta-T
°C
Wind Press
QNH
hPa
Press
MSL
hPa
Rain
since 9 am
mm
Dir
 
Spd
km/h
Gust
km/h
Spd
kts
Gust
kts
07/11:30pm 28.3 26.7 20.8 63 5.0 SE 30 43 16 23 1010.4 1009.0 0.0
07/11:00pm 28.8 27.0 21.1 63 5.2 SE 32 41 17 22 1010.1 1008.7 0.0
07/10:30pm 29.3 28.0 21.3 62 5.4 SE 30 39 16 21 1009.9 1008.5 0.0
07/10:00pm 30.3 28.5 21.1 58 6.2 SE 32 41 17 22 1009.5 1008.1 0.0
07/09:56pm 30.5 28.6 21.0 57 6.4 SE 32 41 17 22 1009.4 1008.0 0.0
07/09:30pm 31.6 31.6 18.9 47 8.3 SSE 17 22 9 12 1009.0 1007.6 0.0
07/09:00pm 32.1 31.6 18.7 45 8.8 SSE 19 26 10 14 1008.6 1007.2 0.0
07/08:30pm 32.7 31.8 17.7 40 9.7 SSE 19 24 10 13 1008.2 1006.8 0.0
07/08:00pm 33.1 32.6 17.7 40 10.0 SE 17 24 9 13 1007.8 1006.4 0.0
07/07:30pm 33.1 32.8 16.5 37 10.6 ESE 13 17 7 9 1007.2 1005.8 0.0
07/07:00pm 34.1 34.1 15.1 32 11.9 S 9 11 5 6 1006.7 1005.2 0.0

Other Formats:

Comma delimited format used in spreadsheet applications
http://www.bom.gov.au/fwo/IDQ60801/IDQ60801.94342.axf

JavaScript Object Notation format (JSON) in row-major order
http://www.bom.gov.au/fwo/IDQ60801/IDQ60801.94342.json